logo
Search for airport 
image banner adimage banner adimage banner ad
image banner ad

CEH9 - Truro (Colchester Health Centre)

Located in , Canada

ICAO - , IATA -

Data provided by Airmate  

General information

Coordinates: N45°20'59" W63°18'20"
Elevation is 140 feet MSL.
Magnetic variation is -18.1811° East
View others Airports in Nova Scotia

Operational data

Special qualification required
Current time UTC:
Current local time:
Weather at : CYHZ - Stanfield Intl ( 55 km )
METAR: CYHZ 230300Z 29007KT 15SM SKC 01/M06 A3007 RMK SLP190
TAF: TAF CYHZ 230241Z 2303/2324 28008KT P6SM SKC BECMG 2304/2306 VRB03KT FM231200 14008KT P6SM SKC FM231500 17012KT P6SM FEW025 FM232300 15008KT P6SM FEW015 RMK NXT FCST BY 230600Z
View NOTAMs / SUP AIP / TFR affecting this airport [VIEW]
Communications frequencies: [VIEW]

Runways:

Airport contact information

Address: Canada

Satellite view of CEH9